createdAt,value
2022-11-19T00:01:10.115Z,100065.25
2022-11-19T00:03:38.235Z,100086.47
2022-11-19T00:06:07.844Z,100101.28
2022-11-19T00:08:35.136Z,100106.44
2022-11-19T00:11:09.510Z,100105.25
2022-11-19T00:13:37.523Z,100103.78
2022-11-19T00:16:09.339Z,100116.97
2022-11-19T00:18:36.004Z,100066.31
2022-11-19T00:21:08.072Z,100062.81
2022-11-19T00:23:34.959Z,100089.38
2022-11-19T00:26:19.811Z,100093.50
2022-11-19T00:28:46.608Z,100081.66
2022-11-19T00:31:14.711Z,100111.38
2022-11-19T00:33:42.433Z,100108.19
2022-11-19T00:36:12.082Z,100109.56
2022-11-19T00:38:38.736Z,100094.34
2022-11-19T00:41:05.933Z,100091.03
2022-11-19T00:43:48.369Z,100091.78
2022-11-19T00:46:21.519Z,100116.41
2022-11-19T00:48:49.625Z,100120.22
2022-11-19T00:51:18.152Z,100118.16
2022-11-19T00:53:45.001Z,100120.56
2022-11-19T00:56:13.594Z,100089.63
2022-11-19T00:58:40.652Z,100123.31
2022-11-19T01:01:07.919Z,100116.56
2022-11-19T01:03:35.132Z,100093.00
2022-11-19T01:06:02.171Z,100121.88
2022-11-19T01:08:28.790Z,100126.94
2022-11-19T01:10:55.318Z,100141.00
2022-11-19T01:13:37.618Z,100083.59
2022-11-19T01:16:04.285Z,100139.94
2022-11-19T01:18:31.327Z,100151.34
2022-11-19T01:20:57.841Z,100111.84
2022-11-19T01:23:24.385Z,100153.69
2022-11-19T01:25:50.916Z,100116.88
2022-11-19T01:28:17.876Z,100128.91
2022-11-19T01:30:44.732Z,100149.97
2022-11-19T01:33:11.492Z,100160.66
2022-11-19T01:35:38.609Z,100162.56
2022-11-19T01:38:05.674Z,100168.81
2022-11-19T01:40:32.700Z,100106.88
2022-11-19T01:42:59.704Z,100157.34
2022-11-19T01:45:36.045Z,100162.41
2022-11-19T01:48:15.250Z,100163.28
2022-11-19T01:50:47.168Z,100169.09
2022-11-19T01:53:13.879Z,100167.31
2022-11-19T01:55:43.124Z,100161.50
2022-11-19T01:58:10.750Z,100123.97
2022-11-19T02:00:37.222Z,100172.31
2022-11-19T02:03:04.065Z,100169.94
2022-11-19T02:05:30.671Z,100171.81
2022-11-19T02:07:58.586Z,100165.63
2022-11-19T02:10:39.209Z,100116.81
2022-11-19T02:13:30.415Z,100181.22
2022-11-19T02:16:21.533Z,100173.50
2022-11-19T02:19:29.625Z,100179.34
2022-11-19T02:21:56.044Z,100179.59
2022-11-19T02:24:41.697Z,100186.00
2022-11-19T02:27:30.919Z,100184.28
2022-11-19T02:30:05.958Z,100191.34
2022-11-19T02:32:53.784Z,100188.31
2022-11-19T02:35:59.921Z,100192.34
2022-11-19T02:38:48.256Z,100196.41
2022-11-19T02:41:35.185Z,100198.91
2022-11-19T02:44:47.501Z,100200.44
2022-11-19T02:47:22.569Z,100201.16
2022-11-19T02:49:51.364Z,100206.53
2022-11-19T02:52:18.554Z,100170.22
2022-11-19T02:54:45.066Z,100202.59
2022-11-19T02:57:12.570Z,100170.97
2022-11-19T03:00:07.426Z,100201.63
2022-11-19T03:02:57.110Z,100211.06
2022-11-19T03:05:26.546Z,100202.75
2022-11-19T03:07:53.103Z,100155.81
2022-11-19T03:10:22.884Z,100106.47
2022-11-19T03:12:54.025Z,100200.25
2022-11-19T03:15:48.350Z,100211.78
2022-11-19T03:18:33.498Z,100209.06
2022-11-19T03:21:08.631Z,100220.44
2022-11-19T03:23:47.606Z,100210.19
2022-11-19T03:26:17.044Z,100216.66
2022-11-19T03:28:44.635Z,100213.69
2022-11-19T03:31:11.563Z,100139.72
2022-11-19T03:33:50.781Z,100206.06
2022-11-19T03:36:27.055Z,100201.50
2022-11-19T03:38:58.055Z,100220.25
2022-11-19T03:41:25.886Z,100216.50
2022-11-19T03:43:56.107Z,100159.91
2022-11-19T03:46:23.140Z,100219.41
2022-11-19T03:48:52.762Z,100227.94
2022-11-19T03:51:41.675Z,100225.13
2022-11-19T03:54:08.673Z,100229.66
2022-11-19T03:56:37.671Z,100223.72
2022-11-19T03:59:07.727Z,100225.47
2022-11-19T04:01:36.645Z,100192.41
2022-11-19T04:04:22.344Z,100204.28
2022-11-19T04:06:48.938Z,100243.44
2022-11-19T04:09:15.570Z,100239.78
2022-11-19T04:11:43.383Z,100201.91
2022-11-19T04:14:09.931Z,100244.00
2022-11-19T04:16:36.769Z,100248.66
2022-11-19T04:19:03.397Z,100243.50
2022-11-19T04:21:30.209Z,100255.75
2022-11-19T04:23:56.701Z,100258.56
2022-11-19T04:26:23.190Z,100262.09
2022-11-19T04:28:49.724Z,100260.00
2022-11-19T04:31:18.041Z,100227.72
2022-11-19T04:33:44.800Z,100267.75
2022-11-19T04:36:11.236Z,100269.94
2022-11-19T04:38:37.901Z,100235.56
2022-11-19T04:41:04.485Z,100198.97
2022-11-19T04:43:30.991Z,100245.94
2022-11-19T04:45:57.694Z,100283.16
2022-11-19T04:48:24.220Z,100239.25
2022-11-19T04:50:50.655Z,100300.56
2022-11-19T04:53:17.172Z,100243.38
2022-11-19T04:55:43.684Z,100286.56
2022-11-19T04:58:10.360Z,100295.66
2022-11-19T05:00:37.300Z,100297.63
2022-11-19T05:03:04.159Z,100292.38
2022-11-19T05:05:30.791Z,100293.75
2022-11-19T05:07:57.234Z,100285.91
2022-11-19T05:10:23.868Z,100257.69
2022-11-19T05:12:50.365Z,100285.47
2022-11-19T05:15:16.891Z,100313.53
2022-11-19T05:17:44.797Z,100304.72
2022-11-19T05:20:11.571Z,100278.59
2022-11-19T05:22:38.022Z,100307.34
2022-11-19T05:25:04.842Z,100273.25
2022-11-19T05:27:31.402Z,100266.94
2022-11-19T05:29:57.850Z,100316.28
2022-11-19T05:32:24.328Z,100317.94
2022-11-19T05:34:50.895Z,100271.78
2022-11-19T05:37:17.596Z,100322.94
2022-11-19T05:39:44.132Z,100324.22
2022-11-19T05:42:10.586Z,100326.78
2022-11-19T05:44:37.123Z,100326.06
2022-11-19T05:47:03.634Z,100311.19
2022-11-19T05:49:30.136Z,100340.97
2022-11-19T05:51:56.582Z,100354.69
2022-11-19T05:54:23.250Z,100248.03
2022-11-19T05:56:49.838Z,100298.06
2022-11-19T05:59:16.586Z,100345.31
2022-11-19T06:01:43.127Z,100344.53
2022-11-19T06:04:10.989Z,100289.84
2022-11-19T06:06:37.966Z,100300.56
2022-11-19T06:09:04.721Z,100288.66
2022-11-19T06:11:50.420Z,100323.47
2022-11-19T06:14:19.412Z,100365.66
2022-11-19T06:16:45.874Z,100359.53
2022-11-19T06:19:12.358Z,100361.13
2022-11-19T06:21:38.907Z,100302.78
2022-11-19T06:24:05.950Z,100339.47
2022-11-19T06:26:32.468Z,100301.78
2022-11-19T06:28:58.913Z,100372.91
2022-11-19T06:31:25.443Z,100373.59
2022-11-19T06:33:53.595Z,100323.00
2022-11-19T06:36:20.583Z,100378.69
2022-11-19T06:38:47.134Z,100358.13
2022-11-19T06:41:13.764Z,100352.75
2022-11-19T06:43:40.307Z,100365.72
2022-11-19T06:46:06.773Z,100389.41
2022-11-19T06:48:33.257Z,100391.69
2022-11-19T06:51:01.570Z,100400.75
2022-11-19T06:53:28.543Z,100355.16
2022-11-19T06:55:58.697Z,100397.50
2022-11-19T06:58:25.428Z,100406.84
2022-11-19T07:00:52.113Z,100386.59
2022-11-19T07:03:19.125Z,100400.06
2022-11-19T07:05:47.915Z,100399.91
2022-11-19T07:08:14.842Z,100364.63
2022-11-19T07:10:41.336Z,100415.94
2022-11-19T07:13:07.918Z,100424.19
2022-11-19T07:15:34.981Z,100416.91
2022-11-19T07:18:02.062Z,100408.28
2022-11-19T07:20:28.890Z,100418.34
2022-11-19T07:22:59.141Z,100390.50
2022-11-19T07:25:26.215Z,100426.22
2022-11-19T07:27:52.783Z,100378.81
2022-11-19T07:30:19.408Z,100423.16
2022-11-19T07:32:45.977Z,100431.28
2022-11-19T07:35:12.734Z,100380.50
2022-11-19T07:37:39.245Z,100410.03
2022-11-19T07:40:06.495Z,100438.03
2022-11-19T07:42:51.429Z,100429.34
2022-11-19T07:45:19.457Z,100422.38
2022-11-19T07:47:46.289Z,100463.53
2022-11-19T07:50:13.077Z,100460.38
2022-11-19T07:52:39.745Z,100470.06
2022-11-19T07:55:07.149Z,100422.44
2022-11-19T07:57:33.735Z,100448.09
2022-11-19T08:00:00.281Z,100469.41
2022-11-19T08:02:26.875Z,100463.13
2022-11-19T08:04:53.402Z,100470.00
2022-11-19T08:07:20.014Z,100457.44
2022-11-19T08:09:46.952Z,100457.03
2022-11-19T08:12:13.675Z,100478.03
2022-11-19T08:14:40.181Z,100461.81
2022-11-19T08:17:25.360Z,100488.28
2022-11-19T08:19:51.880Z,100468.63
2022-11-19T08:22:18.533Z,100342.00
2022-11-19T08:24:45.047Z,100455.94
2022-11-19T08:27:11.867Z,100488.81
2022-11-19T08:29:38.611Z,100483.72
2022-11-19T08:32:05.081Z,100488.38
2022-11-19T08:34:32.193Z,100459.25
2022-11-19T08:36:59.060Z,100472.91
2022-11-19T08:39:25.541Z,100444.84
2022-11-19T08:42:10.654Z,100493.69
2022-11-19T08:44:37.176Z,100505.16
2022-11-19T08:47:03.656Z,100457.38
2022-11-19T08:49:30.189Z,100517.22
2022-11-19T08:51:57.941Z,100491.19
2022-11-19T08:54:24.423Z,100512.16
2022-11-19T08:56:51.074Z,100492.50
2022-11-19T08:59:17.836Z,100514.94
2022-11-19T09:01:44.489Z,100497.28
2022-11-19T09:04:10.951Z,100497.09
2022-11-19T09:06:37.464Z,100527.06
2022-11-19T09:09:04.818Z,100533.34
2022-11-19T09:11:31.376Z,100533.69
2022-11-19T09:13:58.633Z,100520.28
2022-11-19T09:16:25.177Z,100518.78
2022-11-19T09:18:51.640Z,100528.63
2022-11-19T09:21:18.177Z,100527.69
2022-11-19T09:23:44.659Z,100535.34
2022-11-19T09:26:14.167Z,100538.84
2022-11-19T09:28:41.083Z,100531.22
2022-11-19T09:31:15.867Z,100523.72
2022-11-19T09:33:45.643Z,100548.13
2022-11-19T09:36:13.404Z,100538.38
2022-11-19T09:38:40.870Z,100521.41
2022-11-19T09:41:25.687Z,100548.19
2022-11-19T09:44:17.533Z,100553.41
2022-11-19T09:47:02.441Z,100542.06
2022-11-19T09:49:37.914Z,100526.00
2022-11-19T09:52:07.771Z,100538.59
2022-11-19T09:54:34.734Z,100524.22
2022-11-19T09:57:04.699Z,100536.94
2022-11-19T09:59:38.438Z,100542.44
2022-11-19T10:02:21.878Z,100564.28
2022-11-19T10:04:50.729Z,100550.44
2022-11-19T10:07:35.889Z,100553.66
2022-11-19T10:10:23.769Z,100545.56
2022-11-19T10:13:12.031Z,100550.38
2022-11-19T10:15:44.552Z,100532.97
2022-11-19T10:18:20.665Z,100535.38
2022-11-19T10:21:30.528Z,100544.78
2022-11-19T10:24:19.166Z,100547.16
2022-11-19T10:27:09.842Z,100504.84
2022-11-19T10:29:39.059Z,100546.78
2022-11-19T10:32:41.108Z,100561.13
2022-11-19T10:35:18.716Z,100562.50
2022-11-19T10:37:56.092Z,100558.59
2022-11-19T10:40:24.330Z,100558.19
2022-11-19T10:42:54.984Z,100508.78
2022-11-19T10:45:24.521Z,100552.75
2022-11-19T10:48:09.307Z,100555.34
2022-11-19T10:50:36.609Z,100550.41
2022-11-19T10:53:25.276Z,100547.53
2022-11-19T10:55:55.160Z,100545.19
2022-11-19T10:58:30.114Z,100526.97
2022-11-19T11:00:58.264Z,100472.47
2022-11-19T11:03:29.091Z,100515.66
2022-11-19T11:05:55.685Z,100533.94
2022-11-19T11:08:22.255Z,100529.44
2022-11-19T11:10:48.796Z,100523.44
2022-11-19T11:13:33.930Z,100532.97
2022-11-19T11:16:06.958Z,100519.06
2022-11-19T11:18:33.738Z,100502.66
2022-11-19T11:21:00.504Z,100533.25
2022-11-19T11:23:30.999Z,100496.59
2022-11-19T11:26:05.855Z,100522.94
2022-11-19T11:28:33.046Z,100530.00
2022-11-19T11:31:05.201Z,100528.94
2022-11-19T11:33:34.893Z,100519.00
2022-11-19T11:36:12.980Z,100520.06
2022-11-19T11:38:47.877Z,100524.53
2022-11-19T11:42:03.410Z,100524.22
2022-11-19T11:44:21.998Z,100526.41
2022-11-19T11:46:51.078Z,100525.94
2022-11-19T11:49:31.233Z,100523.84
2022-11-19T11:52:13.058Z,100525.66
2022-11-19T11:55:02.399Z,100512.91
2022-11-19T11:57:29.944Z,100514.09
2022-11-19T11:59:57.229Z,100515.69
2022-11-19T12:02:26.843Z,100505.38
2022-11-19T12:04:54.972Z,100524.19
2022-11-19T12:07:40.196Z,100508.81
2022-11-19T12:10:09.748Z,100502.28
2022-11-19T12:12:39.077Z,100504.06
2022-11-19T12:15:22.362Z,100510.56
2022-11-19T12:17:53.911Z,100477.72
2022-11-19T12:20:22.540Z,100508.19
2022-11-19T12:22:56.675Z,100511.25
2022-11-19T12:25:39.143Z,100525.88
2022-11-19T12:28:34.337Z,100531.50
2022-11-19T12:31:13.047Z,100536.66
2022-11-19T12:33:56.331Z,100537.38
2022-11-19T12:36:57.470Z,100536.06
2022-11-19T12:39:45.693Z,100546.34
2022-11-19T12:42:33.921Z,100536.22
2022-11-19T12:45:17.211Z,100542.44
2022-11-19T12:48:02.654Z,100551.28
2022-11-19T12:50:30.452Z,100549.91
2022-11-19T12:53:27.790Z,100546.78
2022-11-19T12:56:06.547Z,100546.94
2022-11-19T12:59:01.931Z,100547.94
2022-11-19T13:01:32.828Z,100544.94
2022-11-19T13:04:17.234Z,100550.09
2022-11-19T13:06:49.701Z,100544.97
2022-11-19T13:09:39.569Z,100536.59
2022-11-19T13:12:08.854Z,100535.69
2022-11-19T13:14:41.034Z,100502.94
2022-11-19T13:17:16.687Z,100537.22
2022-11-19T13:19:46.723Z,100525.53
2022-11-19T13:22:18.958Z,100536.47
2022-11-19T13:24:56.451Z,100523.25
2022-11-19T13:27:26.291Z,100514.41
2022-11-19T13:30:03.098Z,100527.91
2022-11-19T13:32:54.552Z,100539.28
2022-11-19T13:35:21.205Z,100541.50
2022-11-19T13:38:22.358Z,100538.41
2022-11-19T13:41:04.888Z,100515.72
2022-11-19T13:43:49.996Z,100497.00
2022-11-19T13:46:21.707Z,100524.66
2022-11-19T13:49:02.962Z,100483.94
2022-11-19T13:51:53.670Z,100546.63
2022-11-19T13:54:34.531Z,100499.03
2022-11-19T13:57:01.607Z,100536.97
2022-11-19T13:59:38.008Z,100542.72
2022-11-19T14:03:01.269Z,100543.94
2022-11-19T14:05:27.741Z,100543.75
2022-11-19T14:08:05.803Z,100552.28
2022-11-19T14:10:37.700Z,100545.53
2022-11-19T14:13:33.319Z,100554.59
2022-11-19T14:16:27.830Z,100546.31
2022-11-19T14:19:18.353Z,100549.22
2022-11-19T14:22:05.808Z,100553.44
2022-11-19T14:24:50.615Z,100553.13
2022-11-19T14:27:21.208Z,100553.72
2022-11-19T14:29:47.640Z,100550.03
2022-11-19T14:32:14.093Z,100561.34
2022-11-19T14:35:02.484Z,100555.50
2022-11-19T14:37:41.618Z,100559.38
2022-11-19T14:40:15.640Z,100553.94
2022-11-19T14:43:19.224Z,100549.75
2022-11-19T14:46:01.711Z,100554.56
2022-11-19T14:48:29.901Z,100565.06
2022-11-19T14:51:10.885Z,100537.09
2022-11-19T14:53:46.395Z,100560.41
2022-11-19T14:56:15.627Z,100529.47
2022-11-19T14:58:58.667Z,100560.94
2022-11-19T15:01:25.287Z,100554.38
2022-11-19T15:03:55.882Z,100563.47
2022-11-19T15:06:22.608Z,100558.34
2022-11-19T15:08:54.512Z,100562.72
2022-11-19T15:11:21.359Z,100564.59
2022-11-19T15:13:49.397Z,100565.34
2022-11-19T15:16:17.889Z,100516.84
2022-11-19T15:18:44.376Z,100561.75
2022-11-19T15:21:16.982Z,100554.53
2022-11-19T15:24:18.082Z,100570.75
2022-11-19T15:26:59.993Z,100560.75
2022-11-19T15:29:32.191Z,100566.72
2022-11-19T15:32:20.543Z,100565.00
2022-11-19T15:35:12.086Z,100559.41
2022-11-19T15:37:54.393Z,100542.56
2022-11-19T15:40:29.155Z,100559.44
2022-11-19T15:43:06.906Z,100565.59
2022-11-19T15:45:47.156Z,100575.94
2022-11-19T15:48:20.263Z,100562.16
2022-11-19T15:50:47.200Z,100561.59
2022-11-19T15:53:24.522Z,100563.97
2022-11-19T15:56:02.418Z,100566.00
2022-11-19T15:58:49.145Z,100569.41
2022-11-19T16:01:18.970Z,100564.22
2022-11-19T16:03:45.811Z,100562.97
2022-11-19T16:06:18.847Z,100573.91
2022-11-19T16:08:47.261Z,100567.97
2022-11-19T16:11:35.785Z,100566.66
2022-11-19T16:14:21.177Z,100550.00
2022-11-19T16:17:10.219Z,100510.06
2022-11-19T16:19:36.736Z,100504.66
2022-11-19T16:22:04.863Z,100564.47
2022-11-19T16:24:50.531Z,100562.72
2022-11-19T16:27:22.812Z,100566.00
2022-11-19T16:29:49.288Z,100569.31
2022-11-19T16:32:18.710Z,100560.78
2022-11-19T16:34:46.213Z,100571.56
2022-11-19T16:37:14.593Z,100573.13
2022-11-19T16:39:42.355Z,100569.81
2022-11-19T16:42:18.171Z,100565.25
2022-11-19T16:44:56.647Z,100511.50
2022-11-19T16:47:32.554Z,100520.00
2022-11-19T16:50:27.278Z,100569.81
2022-11-19T16:52:54.617Z,100526.81
2022-11-19T16:55:24.277Z,100571.56
2022-11-19T16:57:56.770Z,100539.41
2022-11-19T17:00:25.336Z,100571.28
2022-11-19T17:02:52.311Z,100562.16
2022-11-19T17:05:22.128Z,100479.75
2022-11-19T17:07:50.185Z,100564.56
2022-11-19T17:10:21.194Z,100569.09
2022-11-19T17:12:55.361Z,100569.84
2022-11-19T17:15:37.385Z,100573.50
2022-11-19T17:18:09.842Z,100578.09
2022-11-19T17:20:36.336Z,100575.78
2022-11-19T17:23:10.612Z,100566.22
2022-11-19T17:26:06.635Z,100520.34
2022-11-19T17:28:46.450Z,100575.72
2022-11-19T17:31:31.552Z,100582.50
2022-11-19T17:34:07.943Z,100532.81
2022-11-19T17:36:34.380Z,100548.53
2022-11-19T17:39:00.880Z,100555.28
2022-11-19T17:41:47.189Z,100561.72
2022-11-19T17:44:34.855Z,100573.06
2022-11-19T17:47:24.013Z,100573.16
2022-11-19T17:49:52.649Z,100540.03
2022-11-19T17:52:22.618Z,100579.72
2022-11-19T17:54:50.208Z,100549.34
2022-11-19T17:57:16.743Z,100583.97
2022-11-19T17:59:43.333Z,100590.28
2022-11-19T18:02:18.117Z,100562.97
2022-11-19T18:04:46.864Z,100594.56
2022-11-19T18:07:13.914Z,100586.72
2022-11-19T18:09:43.918Z,100588.81
2022-11-19T18:12:15.568Z,100598.03
2022-11-19T18:14:42.460Z,100558.59
2022-11-19T18:17:15.740Z,100591.00
2022-11-19T18:19:42.500Z,100600.19
2022-11-19T18:22:18.203Z,100590.72
2022-11-19T18:24:49.698Z,100602.31
2022-11-19T18:27:16.725Z,100601.63
2022-11-19T18:29:43.259Z,100606.44
2022-11-19T18:32:15.224Z,100554.09
2022-11-19T18:34:41.925Z,100589.50
2022-11-19T18:37:08.792Z,100601.69
2022-11-19T18:39:35.441Z,100545.47
2022-11-19T18:42:02.027Z,100600.00
2022-11-19T18:44:34.619Z,100583.88
2022-11-19T18:47:06.448Z,100587.53
2022-11-19T18:49:35.940Z,100587.97
2022-11-19T18:52:07.645Z,100587.91
2022-11-19T18:54:34.609Z,100563.91
2022-11-19T18:57:01.601Z,100586.44
2022-11-19T18:59:29.737Z,100579.22
2022-11-19T19:01:56.276Z,100529.84
2022-11-19T19:04:23.990Z,100572.44
2022-11-19T19:06:50.515Z,100565.09
2022-11-19T19:09:20.640Z,100579.31
2022-11-19T19:12:12.535Z,100586.25
2022-11-19T19:14:39.771Z,100585.84
2022-11-19T19:17:06.277Z,100573.66
2022-11-19T19:19:32.755Z,100528.16
2022-11-19T19:21:59.523Z,100544.75
2022-11-19T19:24:26.569Z,100565.66
2022-11-19T19:26:53.648Z,100580.16
2022-11-19T19:29:20.452Z,100602.53
2022-11-19T19:31:47.249Z,100596.28
2022-11-19T19:34:13.764Z,100601.16
2022-11-19T19:36:40.213Z,100595.59
2022-11-19T19:39:06.810Z,100578.59
2022-11-19T19:41:33.613Z,100574.59
2022-11-19T19:44:02.737Z,100593.88
2022-11-19T19:46:29.802Z,100594.53
2022-11-19T19:48:56.644Z,100602.00
2022-11-19T19:51:25.533Z,100606.78
2022-11-19T19:53:52.948Z,100605.56
2022-11-19T19:56:26.926Z,100603.00
2022-11-19T19:58:57.776Z,100598.22
2022-11-19T20:01:29.759Z,100605.47
2022-11-19T20:04:07.937Z,100601.53
2022-11-19T20:06:35.548Z,100541.72
2022-11-19T20:09:08.116Z,100604.34
2022-11-19T20:11:35.754Z,100595.41
2022-11-19T20:14:02.434Z,100554.00
2022-11-19T20:16:30.574Z,100577.75
2022-11-19T20:18:58.796Z,100593.75
2022-11-19T20:21:36.315Z,100595.50
2022-11-19T20:24:08.677Z,100544.28
2022-11-19T20:26:37.234Z,100595.75
2022-11-19T20:29:05.410Z,100597.16
2022-11-19T20:31:33.210Z,100597.84
2022-11-19T20:34:01.763Z,100584.03
2022-11-19T20:36:30.211Z,100594.50
2022-11-19T20:38:57.549Z,100563.78
2022-11-19T20:41:43.195Z,100550.19
2022-11-19T20:44:20.183Z,100602.22
2022-11-19T20:46:58.199Z,100603.44
2022-11-19T20:49:29.673Z,100606.38
2022-11-19T20:51:56.849Z,100603.59
2022-11-19T20:54:24.263Z,100597.91
2022-11-19T20:56:51.955Z,100593.19
2022-11-19T20:59:18.892Z,100576.72
2022-11-19T21:01:50.356Z,100606.38
2022-11-19T21:04:17.393Z,100572.31
2022-11-19T21:06:43.863Z,100575.72
2022-11-19T21:09:10.493Z,100590.22
2022-11-19T21:11:37.090Z,100586.31
2022-11-19T21:14:03.983Z,100551.50
2022-11-19T21:16:31.628Z,100557.13
2022-11-19T21:18:58.203Z,100474.59
2022-11-19T21:21:25.732Z,100576.69
2022-11-19T21:23:53.404Z,100574.06
2022-11-19T21:26:22.446Z,100517.53
2022-11-19T21:28:53.777Z,100571.44
2022-11-19T21:31:22.968Z,100524.91
2022-11-19T21:33:49.502Z,100581.91
2022-11-19T21:36:16.025Z,100519.97
2022-11-19T21:38:42.514Z,100516.47
2022-11-19T21:41:09.104Z,100575.91
2022-11-19T21:43:35.768Z,100532.19
2022-11-19T21:46:06.841Z,100581.81
2022-11-19T21:48:33.286Z,100570.34
2022-11-19T21:50:59.814Z,100573.94
2022-11-19T21:53:26.367Z,100543.53
2022-11-19T21:55:52.828Z,100565.53
2022-11-19T21:58:19.960Z,100527.31
2022-11-19T22:00:47.145Z,100564.63
2022-11-19T22:03:14.227Z,100426.34
2022-11-19T22:05:41.342Z,100569.84
2022-11-19T22:08:08.199Z,100533.97
2022-11-19T22:10:34.740Z,100527.81
2022-11-19T22:13:01.257Z,100560.16
2022-11-19T22:15:27.833Z,100576.38
2022-11-19T22:17:54.335Z,100571.56
2022-11-19T22:20:20.819Z,100508.34
2022-11-19T22:22:47.458Z,100572.72
2022-11-19T22:25:14.236Z,100578.19
2022-11-19T22:27:41.796Z,100572.59
2022-11-19T22:30:10.307Z,100573.09
2022-11-19T22:32:37.082Z,100574.97
2022-11-19T22:35:04.260Z,100571.19
2022-11-19T22:37:30.702Z,100580.03
2022-11-19T22:39:57.346Z,100578.19
2022-11-19T22:42:23.834Z,100578.13
2022-11-19T22:44:51.447Z,100544.22
2022-11-19T22:47:17.932Z,100554.84
2022-11-19T22:49:44.810Z,100580.03
2022-11-19T22:52:11.270Z,100592.91
2022-11-19T22:54:41.547Z,100557.19
2022-11-19T22:57:08.683Z,100527.72
2022-11-19T22:59:35.425Z,100590.16
2022-11-19T23:02:01.925Z,100568.94
2022-11-19T23:04:29.097Z,100579.41
2022-11-19T23:06:55.654Z,100557.47
2022-11-19T23:09:22.675Z,100554.13
2022-11-19T23:12:08.044Z,100571.06
2022-11-19T23:14:34.514Z,100567.22
2022-11-19T23:17:01.157Z,100579.81
2022-11-19T23:19:27.613Z,100571.25
2022-11-19T23:21:54.160Z,100553.75
2022-11-19T23:24:20.604Z,100521.84
2022-11-19T23:26:47.054Z,100566.59
2022-11-19T23:29:13.825Z,100554.00
2022-11-19T23:31:40.526Z,100488.53
2022-11-19T23:34:07.130Z,100536.09
2022-11-19T23:36:36.322Z,100528.28
2022-11-19T23:39:03.513Z,100540.00
2022-11-19T23:41:32.498Z,100539.00
2022-11-19T23:43:59.097Z,100520.69
2022-11-19T23:46:27.920Z,100537.88
2022-11-19T23:48:56.076Z,100508.56
2022-11-19T23:51:30.899Z,100542.03
2022-11-19T23:53:58.148Z,100501.97
2022-11-19T23:56:25.519Z,100531.44
2022-11-19T23:58:52.096Z,100531.81
